sensor_id;sensor_type;location;lat;lon;timestamp;pressure;altitude;pressure_sealevel;temperature;humidity
28606;BME280;46498;49.968;7.754;2022-10-04T00:04:43;97838.00;;;6.28;100.00
28606;BME280;46498;49.968;7.754;2022-10-04T00:09:51;97847.00;;;6.27;100.00
28606;BME280;46498;49.968;7.754;2022-10-04T00:14:57;97850.00;;;6.30;100.00
28606;BME280;46498;49.968;7.754;2022-10-04T00:19:59;97842.00;;;6.13;100.00
28606;BME280;46498;49.968;7.754;2022-10-04T00:25:32;97843.00;;;6.10;100.00
28606;BME280;46498;49.968;7.754;2022-10-04T00:30:36;97849.00;;;6.14;100.00
28606;BME280;46498;49.968;7.754;2022-10-04T00:35:48;97849.00;;;6.21;100.00
28606;BME280;46498;49.968;7.754;2022-10-04T00:41:03;97854.00;;;6.16;100.00
28606;BME280;46498;49.968;7.754;2022-10-04T00:46:11;97854.00;;;5.98;100.00
28606;BME280;46498;49.968;7.754;2022-10-04T00:51:41;97856.00;;;5.99;100.00
28606;BME280;46498;49.968;7.754;2022-10-04T00:57:14;97846.00;;;6.10;100.00
28606;BME280;46498;49.968;7.754;2022-10-04T01:02:22;97837.00;;;6.11;100.00
28606;BME280;46498;49.968;7.754;2022-10-04T01:07:30;97830.00;;;6.26;100.00
28606;BME280;46498;49.968;7.754;2022-10-04T01:12:42;97828.00;;;5.99;100.00
28606;BME280;46498;49.968;7.754;2022-10-04T01:18:49;97831.00;;;5.86;100.00
28606;BME280;46498;49.968;7.754;2022-10-04T01:24:23;97822.00;;;5.94;100.00
28606;BME280;46498;49.968;7.754;2022-10-04T01:29:26;97808.00;;;6.02;100.00
28606;BME280;46498;49.968;7.754;2022-10-04T01:34:28;97808.00;;;5.86;100.00
28606;BME280;46498;49.968;7.754;2022-10-04T01:39:30;97811.00;;;5.95;100.00
28606;BME280;46498;49.968;7.754;2022-10-04T01:44:44;97790.00;;;5.94;100.00
28606;BME280;46498;49.968;7.754;2022-10-04T01:49:48;97796.00;;;5.94;100.00
28606;BME280;46498;49.968;7.754;2022-10-04T01:54:59;97785.00;;;5.73;100.00
28606;BME280;46498;49.968;7.754;2022-10-04T02:00:06;97781.00;;;5.53;100.00
28606;BME280;46498;49.968;7.754;2022-10-04T02:05:11;97775.00;;;5.65;100.00
28606;BME280;46498;49.968;7.754;2022-10-04T02:10:17;97773.00;;;5.79;100.00
28606;BME280;46498;49.968;7.754;2022-10-04T02:15:21;97768.00;;;5.74;100.00
28606;BME280;46498;49.968;7.754;2022-10-04T02:20:25;97761.00;;;5.77;100.00
28606;BME280;46498;49.968;7.754;2022-10-04T02:25:27;97751.00;;;5.90;100.00
28606;BME280;46498;49.968;7.754;2022-10-04T02:30:34;97750.00;;;5.92;100.00
28606;BME280;46498;49.968;7.754;2022-10-04T02:35:44;97756.00;;;5.89;100.00
28606;BME280;46498;49.968;7.754;2022-10-04T02:40:59;97743.00;;;5.95;100.00
28606;BME280;46498;49.968;7.754;2022-10-04T02:46:11;97737.00;;;5.99;100.00
28606;BME280;46498;49.968;7.754;2022-10-04T02:51:29;97746.00;;;5.93;100.00
28606;BME280;46498;49.968;7.754;2022-10-04T02:56:34;97748.00;;;5.90;100.00
28606;BME280;46498;49.968;7.754;2022-10-04T03:01:54;97739.00;;;5.89;100.00
28606;BME280;46498;49.968;7.754;2022-10-04T03:06:59;97734.00;;;5.68;100.00
28606;BME280;46498;49.968;7.754;2022-10-04T03:12:02;97746.00;;;5.53;100.00
28606;BME280;46498;49.968;7.754;2022-10-04T03:17:05;97745.00;;;5.63;100.00
28606;BME280;46498;49.968;7.754;2022-10-04T03:22:08;97740.00;;;5.76;100.00
28606;BME280;46498;49.968;7.754;2022-10-04T03:27:20;97747.00;;;5.80;100.00
28606;BME280;46498;49.968;7.754;2022-10-04T03:32:21;97741.00;;;5.83;100.00
28606;BME280;46498;49.968;7.754;2022-10-04T03:37:23;97744.00;;;5.87;100.00
28606;BME280;46498;49.968;7.754;2022-10-04T03:42:29;97741.00;;;5.87;100.00
28606;BME280;46498;49.968;7.754;2022-10-04T03:47:34;97737.00;;;5.93;100.00
28606;BME280;46498;49.968;7.754;2022-10-04T03:52:45;97741.00;;;5.99;100.00
28606;BME280;46498;49.968;7.754;2022-10-04T03:57:48;97745.00;;;6.03;100.00
28606;BME280;46498;49.968;7.754;2022-10-04T04:02:54;97737.00;;;6.00;100.00
28606;BME280;46498;49.968;7.754;2022-10-04T04:08:26;97736.00;;;6.04;100.00
28606;BME280;46498;49.968;7.754;2022-10-04T04:13:41;97738.00;;;6.09;100.00
28606;BME280;46498;49.968;7.754;2022-10-04T04:18:47;97736.00;;;6.12;100.00
28606;BME280;46498;49.968;7.754;2022-10-04T04:24:00;97730.00;;;6.18;100.00
28606;BME280;46498;49.968;7.754;2022-10-04T04:29:32;97724.00;;;6.24;100.00
28606;BME280;46498;49.968;7.754;2022-10-04T04:34:47;97723.00;;;6.06;100.00
28606;BME280;46498;49.968;7.754;2022-10-04T04:39:50;97716.00;;;6.07;100.00
28606;BME280;46498;49.968;7.754;2022-10-04T04:45:09;97717.00;;;6.11;100.00
28606;BME280;46498;49.968;7.754;2022-10-04T04:50:23;97702.00;;;6.12;100.00
28606;BME280;46498;49.968;7.754;2022-10-04T04:55:45;97709.00;;;6.11;100.00
28606;BME280;46498;49.968;7.754;2022-10-04T05:01:26;97710.00;;;6.13;100.00
28606;BME280;46498;49.968;7.754;2022-10-04T05:06:29;97707.00;;;5.98;100.00
28606;BME280;46498;49.968;7.754;2022-10-04T05:11:36;97709.00;;;5.91;100.00
28606;BME280;46498;49.968;7.754;2022-10-04T05:16:52;97705.00;;;6.01;100.00
28606;BME280;46498;49.968;7.754;2022-10-04T05:21:55;97707.00;;;5.91;100.00
28606;BME280;46498;49.968;7.754;2022-10-04T05:27:13;97702.00;;;5.72;100.00
28606;BME280;46498;49.968;7.754;2022-10-04T05:32:32;97702.00;;;5.89;100.00
28606;BME280;46498;49.968;7.754;2022-10-04T05:38:38;97711.00;;;5.92;100.00
28606;BME280;46498;49.968;7.754;2022-10-04T05:43:48;97709.00;;;5.99;100.00
28606;BME280;46498;49.968;7.754;2022-10-04T05:48:54;97709.00;;;6.11;100.00
28606;BME280;46498;49.968;7.754;2022-10-04T05:53:59;97708.00;;;6.17;100.00
28606;BME280;46498;49.968;7.754;2022-10-04T05:59:43;97711.00;;;6.24;100.00
28606;BME280;46498;49.968;7.754;2022-10-04T06:05:11;97717.00;;;6.27;100.00
28606;BME280;46498;49.968;7.754;2022-10-04T06:10:31;97712.00;;;6.13;100.00
28606;BME280;46498;49.968;7.754;2022-10-04T06:16:35;97710.00;;;6.15;100.00
28606;BME280;46498;49.968;7.754;2022-10-04T06:28:33;97716.00;;;6.36;100.00
28606;BME280;46498;49.968;7.754;2022-10-04T06:33:55;97733.00;;;6.57;100.00
28606;BME280;46498;49.968;7.754;2022-10-04T06:39:15;97733.00;;;6.66;100.00
28606;BME280;46498;49.968;7.754;2022-10-04T06:46:04;97737.00;;;6.84;100.00
28606;BME280;46498;49.968;7.754;2022-10-04T06:51:25;97733.00;;;7.09;100.00
28606;BME280;46498;49.968;7.754;2022-10-04T06:57:14;97741.00;;;7.33;100.00
28606;BME280;46498;49.968;7.754;2022-10-04T07:02:31;97748.00;;;7.46;100.00
28606;BME280;46498;49.968;7.754;2022-10-04T07:07:41;97743.00;;;7.76;100.00
28606;BME280;46498;49.968;7.754;2022-10-04T07:12:58;97744.00;;;8.14;100.00
28606;BME280;46498;49.968;7.754;2022-10-04T07:18:07;97735.00;;;8.52;100.00
28606;BME280;46498;49.968;7.754;2022-10-04T07:23:20;97731.00;;;8.88;100.00
28606;BME280;46498;49.968;7.754;2022-10-04T07:28:32;97733.00;;;9.03;100.00
28606;BME280;46498;49.968;7.754;2022-10-04T07:34:02;97728.00;;;8.91;100.00
28606;BME280;46498;49.968;7.754;2022-10-04T07:39:06;97739.00;;;8.82;100.00
28606;BME280;46498;49.968;7.754;2022-10-04T07:44:17;97729.00;;;8.92;100.00
28606;BME280;46498;49.968;7.754;2022-10-04T07:49:21;97735.00;;;9.19;100.00
28606;BME280;46498;49.968;7.754;2022-10-04T07:54:43;97735.00;;;9.44;100.00
28606;BME280;46498;49.968;7.754;2022-10-04T08:00:03;97751.00;;;9.50;100.00
28606;BME280;46498;49.968;7.754;2022-10-04T08:05:21;97746.00;;;9.65;100.00
28606;BME280;46498;49.968;7.754;2022-10-04T08:10:39;97739.00;;;9.71;100.00
28606;BME280;46498;49.968;7.754;2022-10-04T08:15:49;97731.00;;;9.82;100.00
28606;BME280;46498;49.968;7.754;2022-10-04T08:21:00;97730.00;;;10.01;100.00
28606;BME280;46498;49.968;7.754;2022-10-04T08:26:21;97740.00;;;10.06;100.00
28606;BME280;46498;49.968;7.754;2022-10-04T08:37:32;97745.00;;;10.34;100.00
28606;BME280;46498;49.968;7.754;2022-10-04T08:45:33;97741.00;;;10.78;100.00
28606;BME280;46498;49.968;7.754;2022-10-04T08:53:38;97740.00;;;11.06;100.00
28606;BME280;46498;49.968;7.754;2022-10-04T09:00:26;97748.00;;;11.37;100.00
28606;BME280;46498;49.968;7.754;2022-10-04T09:15:50;97739.00;;;11.41;100.00
28606;BME280;46498;49.968;7.754;2022-10-04T09:21:34;97750.00;;;11.96;100.00
28606;BME280;46498;49.968;7.754;2022-10-04T09:26:55;97746.00;;;11.97;96.79
28606;BME280;46498;49.968;7.754;2022-10-04T09:32:35;97739.00;;;11.61;100.00
28606;BME280;46498;49.968;7.754;2022-10-04T09:41:09;97739.00;;;11.94;100.00
28606;BME280;46498;49.968;7.754;2022-10-04T09:50:08;97737.00;;;12.40;97.78
28606;BME280;46498;49.968;7.754;2022-10-04T10:07:15;97720.00;;;12.76;94.50
28606;BME280;46498;49.968;7.754;2022-10-04T10:12:34;97725.00;;;12.74;92.29
28606;BME280;46498;49.968;7.754;2022-10-04T10:18:19;97720.00;;;13.16;97.10
28606;BME280;46498;49.968;7.754;2022-10-04T10:45:34;97732.00;;;12.75;96.42
28606;BME280;46498;49.968;7.754;2022-10-04T10:50:52;97727.00;;;13.25;95.75
28606;BME280;46498;49.968;7.754;2022-10-04T11:24:04;97732.00;;;14.63;86.47
28606;BME280;46498;49.968;7.754;2022-10-04T11:29:30;97720.00;;;14.75;83.22
28606;BME280;46498;49.968;7.754;2022-10-04T11:47:24;97712.00;;;14.02;86.17
28606;BME280;46498;49.968;7.754;2022-10-04T12:00:18;97698.00;;;13.78;92.10
28606;BME280;46498;49.968;7.754;2022-10-04T12:18:58;97689.00;;;13.81;92.92
28606;BME280;46498;49.968;7.754;2022-10-04T12:32:25;97678.00;;;14.03;90.46
28606;BME280;46498;49.968;7.754;2022-10-04T12:38:05;97662.00;;;13.78;95.64
28606;BME280;46498;49.968;7.754;2022-10-04T12:43:49;97665.00;;;14.32;93.29
28606;BME280;46498;49.968;7.754;2022-10-04T13:05:59;97651.00;;;14.48;91.96
28606;BME280;46498;49.968;7.754;2022-10-04T13:19:50;97650.00;;;14.84;87.24
28606;BME280;46498;49.968;7.754;2022-10-04T13:25:13;97639.00;;;14.75;89.35
28606;BME280;46498;49.968;7.754;2022-10-04T13:30:22;97637.00;;;15.09;87.88
28606;BME280;46498;49.968;7.754;2022-10-04T13:38:05;97652.00;;;15.47;85.43
28606;BME280;46498;49.968;7.754;2022-10-04T13:47:11;97641.00;;;15.47;86.06
28606;BME280;46498;49.968;7.754;2022-10-04T13:52:42;97653.00;;;15.97;78.89
28606;BME280;46498;49.968;7.754;2022-10-04T14:18:37;97628.00;;;16.07;80.45
28606;BME280;46498;49.968;7.754;2022-10-04T14:30:09;97617.00;;;15.64;84.00
28606;BME280;46498;49.968;7.754;2022-10-04T14:35:23;97610.00;;;16.00;81.24
28606;BME280;46498;49.968;7.754;2022-10-04T14:47:19;97616.00;;;16.09;81.71
28606;BME280;46498;49.968;7.754;2022-10-04T14:52:51;97600.00;;;15.79;82.93
28606;BME280;46498;49.968;7.754;2022-10-04T14:58:38;97597.00;;;15.81;84.50
28606;BME280;46498;49.968;7.754;2022-10-04T15:06:55;97594.00;;;16.12;83.55
28606;BME280;46498;49.968;7.754;2022-10-04T15:12:01;97587.00;;;15.83;85.51
28606;BME280;46498;49.968;7.754;2022-10-04T15:18:24;97591.00;;;15.95;86.58
28606;BME280;46498;49.968;7.754;2022-10-04T15:23:33;97579.00;;;15.25;90.02
28606;BME280;46498;49.968;7.754;2022-10-04T15:33:51;97582.00;;;14.95;90.91
28606;BME280;46498;49.968;7.754;2022-10-04T15:38:59;97582.00;;;14.86;92.28
28606;BME280;46498;49.968;7.754;2022-10-04T15:44:26;97579.00;;;14.86;92.01
28606;BME280;46498;49.968;7.754;2022-10-04T16:01:05;97574.00;;;14.68;93.77
28606;BME280;46498;49.968;7.754;2022-10-04T16:06:24;97536.00;;;14.39;95.80
28606;BME280;46498;49.968;7.754;2022-10-04T16:11:55;97528.00;;;14.13;98.04
28606;BME280;46498;49.968;7.754;2022-10-04T16:17:28;97544.00;;;14.07;97.50
28606;BME280;46498;49.968;7.754;2022-10-04T16:22:33;97528.00;;;13.83;99.03
28606;BME280;46498;49.968;7.754;2022-10-04T16:27:44;97525.00;;;13.67;100.00
28606;BME280;46498;49.968;7.754;2022-10-04T16:33:23;97538.00;;;13.63;100.00
28606;BME280;46498;49.968;7.754;2022-10-04T16:38:28;97540.00;;;13.52;100.00
28606;BME280;46498;49.968;7.754;2022-10-04T16:43:34;97544.00;;;13.37;100.00
28606;BME280;46498;49.968;7.754;2022-10-04T16:49:03;97543.00;;;13.08;100.00
28606;BME280;46498;49.968;7.754;2022-10-04T16:54:37;97545.00;;;13.09;100.00
28606;BME280;46498;49.968;7.754;2022-10-04T16:59:44;97550.00;;;13.07;100.00
28606;BME280;46498;49.968;7.754;2022-10-04T17:06:12;97551.00;;;13.08;100.00
28606;BME280;46498;49.968;7.754;2022-10-04T17:11:28;97548.00;;;12.87;100.00
28606;BME280;46498;49.968;7.754;2022-10-04T17:16:38;97551.00;;;12.73;100.00
28606;BME280;46498;49.968;7.754;2022-10-04T17:22:02;97557.00;;;12.54;100.00
28606;BME280;46498;49.968;7.754;2022-10-04T17:33:21;97577.00;;;12.25;100.00
28606;BME280;46498;49.968;7.754;2022-10-04T17:46:43;97586.00;;;11.62;100.00
28606;BME280;46498;49.968;7.754;2022-10-04T17:51:48;97604.00;;;11.42;100.00
28606;BME280;46498;49.968;7.754;2022-10-04T17:57:24;97601.00;;;11.19;100.00
28606;BME280;46498;49.968;7.754;2022-10-04T18:04:23;97593.00;;;11.37;100.00
28606;BME280;46498;49.968;7.754;2022-10-04T18:09:33;97587.00;;;11.35;100.00
28606;BME280;46498;49.968;7.754;2022-10-04T18:14:54;97586.00;;;11.19;100.00
28606;BME280;46498;49.968;7.754;2022-10-04T18:20:06;97584.00;;;10.96;100.00
28606;BME280;46498;49.968;7.754;2022-10-04T18:25:18;97580.00;;;10.97;100.00
28606;BME280;46498;49.968;7.754;2022-10-04T18:30:22;97590.00;;;10.97;100.00
28606;BME280;46498;49.968;7.754;2022-10-04T18:35:26;97589.00;;;10.96;100.00
28606;BME280;46498;49.968;7.754;2022-10-04T18:40:40;97597.00;;;10.96;100.00
28606;BME280;46498;49.968;7.754;2022-10-04T18:45:58;97598.00;;;10.78;100.00
28606;BME280;46498;49.968;7.754;2022-10-04T18:51:25;97597.00;;;10.49;100.00
28606;BME280;46498;49.968;7.754;2022-10-04T18:56:27;97597.00;;;10.31;100.00
28606;BME280;46498;49.968;7.754;2022-10-04T19:20:19;97615.00;;;10.26;100.00
28606;BME280;46498;49.968;7.754;2022-10-04T19:25:42;97605.00;;;10.16;100.00
28606;BME280;46498;49.968;7.754;2022-10-04T19:31:32;97607.00;;;10.06;100.00
28606;BME280;46498;49.968;7.754;2022-10-04T19:36:57;97613.00;;;9.86;100.00
28606;BME280;46498;49.968;7.754;2022-10-04T19:48:46;97623.00;;;9.89;100.00
28606;BME280;46498;49.968;7.754;2022-10-04T19:53:53;97619.00;;;9.92;100.00
28606;BME280;46498;49.968;7.754;2022-10-04T19:59:05;97616.00;;;9.83;100.00
28606;BME280;46498;49.968;7.754;2022-10-04T20:04:13;97629.00;;;9.82;100.00
28606;BME280;46498;49.968;7.754;2022-10-04T20:11:11;97644.00;;;9.79;100.00
28606;BME280;46498;49.968;7.754;2022-10-04T20:17:01;97630.00;;;9.79;100.00
28606;BME280;46498;49.968;7.754;2022-10-04T20:23:03;97630.00;;;9.74;100.00
28606;BME280;46498;49.968;7.754;2022-10-04T20:28:04;97633.00;;;9.67;100.00
28606;BME280;46498;49.968;7.754;2022-10-04T20:33:05;97639.00;;;9.73;100.00
28606;BME280;46498;49.968;7.754;2022-10-04T20:38:13;97639.00;;;9.70;100.00
28606;BME280;46498;49.968;7.754;2022-10-04T20:43:52;97630.00;;;9.64;100.00
28606;BME280;46498;49.968;7.754;2022-10-04T20:48:53;97629.00;;;9.46;100.00
28606;BME280;46498;49.968;7.754;2022-10-04T20:53:55;97629.00;;;9.42;100.00
28606;BME280;46498;49.968;7.754;2022-10-04T20:58:58;97627.00;;;9.39;100.00
28606;BME280;46498;49.968;7.754;2022-10-04T21:04:28;97608.00;;;9.39;100.00
28606;BME280;46498;49.968;7.754;2022-10-04T21:09:35;97606.00;;;9.30;100.00
28606;BME280;46498;49.968;7.754;2022-10-04T21:14:36;97602.00;;;9.25;100.00
28606;BME280;46498;49.968;7.754;2022-10-04T21:19:43;97606.00;;;9.26;100.00
28606;BME280;46498;49.968;7.754;2022-10-04T21:25:04;97607.00;;;9.25;100.00
28606;BME280;46498;49.968;7.754;2022-10-04T21:30:12;97596.00;;;9.37;100.00
28606;BME280;46498;49.968;7.754;2022-10-04T21:35:13;97592.00;;;9.50;100.00
28606;BME280;46498;49.968;7.754;2022-10-04T21:40:14;97597.00;;;9.20;100.00
28606;BME280;46498;49.968;7.754;2022-10-04T21:45:15;97596.00;;;9.30;100.00
28606;BME280;46498;49.968;7.754;2022-10-04T21:50:16;97588.00;;;9.34;100.00
28606;BME280;46498;49.968;7.754;2022-10-04T21:55:17;97600.00;;;9.38;100.00
28606;BME280;46498;49.968;7.754;2022-10-04T22:00:18;97600.00;;;9.36;100.00
28606;BME280;46498;49.968;7.754;2022-10-04T22:05:18;97603.00;;;9.29;100.00
28606;BME280;46498;49.968;7.754;2022-10-04T22:10:19;97581.00;;;9.28;100.00
28606;BME280;46498;49.968;7.754;2022-10-04T22:15:20;97583.00;;;9.32;100.00
28606;BME280;46498;49.968;7.754;2022-10-04T22:20:23;97576.00;;;9.24;100.00
28606;BME280;46498;49.968;7.754;2022-10-04T22:25:25;97568.00;;;9.26;100.00
28606;BME280;46498;49.968;7.754;2022-10-04T22:30:28;97566.00;;;9.25;100.00
28606;BME280;46498;49.968;7.754;2022-10-04T22:35:30;97574.00;;;9.16;100.00
28606;BME280;46498;49.968;7.754;2022-10-04T22:40:33;97566.00;;;9.19;100.00
28606;BME280;46498;49.968;7.754;2022-10-04T22:45:35;97580.00;;;9.18;100.00
28606;BME280;46498;49.968;7.754;2022-10-04T22:50:36;97583.00;;;8.94;100.00
28606;BME280;46498;49.968;7.754;2022-10-04T22:55:39;97581.00;;;8.98;100.00
28606;BME280;46498;49.968;7.754;2022-10-04T23:00:41;97590.00;;;8.97;100.00
28606;BME280;46498;49.968;7.754;2022-10-04T23:05:42;97594.00;;;8.96;100.00
28606;BME280;46498;49.968;7.754;2022-10-04T23:10:44;97588.00;;;8.90;100.00
28606;BME280;46498;49.968;7.754;2022-10-04T23:15:45;97586.00;;;8.92;100.00
28606;BME280;46498;49.968;7.754;2022-10-04T23:20:52;97588.00;;;8.90;100.00
28606;BME280;46498;49.968;7.754;2022-10-04T23:25:54;97594.00;;;8.73;100.00
28606;BME280;46498;49.968;7.754;2022-10-04T23:31:06;97590.00;;;8.69;100.00
28606;BME280;46498;49.968;7.754;2022-10-04T23:36:12;97588.00;;;8.54;100.00
28606;BME280;46498;49.968;7.754;2022-10-04T23:41:15;97580.00;;;8.45;100.00
28606;BME280;46498;49.968;7.754;2022-10-04T23:46:17;97570.00;;;8.58;100.00
28606;BME280;46498;49.968;7.754;2022-10-04T23:51:19;97565.00;;;8.58;100.00
28606;BME280;46498;49.968;7.754;2022-10-04T23:56:23;97562.00;;;8.44;100.00
